• Join FlightAware (Why Join?)
  • Login
  • US Flag 
11:08AM EDT


 

Airport Tracker/Info


-or-


 

Live Flight TrackerFlight Track Log ✈ JBU917 ✈ 14-May-2013 ✈ KJFK - KORD

Flight Track Log - Related Links

Times and Time Zones

All times are in EDT time to prevent confusion due to time zone crossing. See the JBU917 flight status page for this flight to view local times or setup timezone preferences in your user account.

Time Position Orientation Groundspeed Altitude Reporting Facility
EDT Latitude Longitude Course Direction KTS MPH feet Rate Location/Type
08:42PM 40.5833 -73.7833 304° West 210 242 2,300  Level New York TRACON
08:43PM 40.6167 -73.7000 62° Northeast 244 281 4,700 2,880 Climbing New York TRACON
08:44PM 40.7852 -74.0537 304° West  Level FlightAware Approximate
08:44PM 40.6667 -73.6500 37° Northeast 271 312 8,100  Level New York TRACON
08:45PM 40.8360 -74.1551 304° West  Level FlightAware Approximate
08:45PM 40.7333 -73.5833 37° Northeast 286 329 10,800  Level New York TRACON
08:46PM 40.8880 -74.2556 306° West  Level FlightAware Approximate
08:46PM 40.8167 -73.5667 North 318 366 13,100  Level New York TRACON
08:47PM 40.9418 -74.3544 306° West  Level FlightAware Approximate
08:47PM 40.8667 -73.6500 308° West 318 366 16,000  Level New York TRACON
08:48PM 40.9992 -74.4484 304° West  Level FlightAware Approximate
08:50PM 40.9728 -73.8850 301° West 330 380 17,000  Level New York Center
08:51PM 40.9969 -73.9878 287° West 320 368 17,500 1,260 Climbing New York Center
08:52PM 41.0208 -74.1069 285° West 331 381 19,600 2,400 Climbing New York Center
08:53PM 41.0444 -74.2239 285° West 336 387 22,400 2,460 Climbing New York Center
08:54PM 41.0661 -74.3378 284° West 331 381 24,600 1,260 Climbing New York Center
08:55PM 41.0892 -74.4628 284° West 331 381 25,000 600 Climbing New York Center
08:56PM 41.1147 -74.5772 287° West 331 381 25,800 1,020 Climbing New York Center
08:57PM 41.1439 -74.7056 287° West 345 397 27,100 1,440 Climbing New York Center
08:58PM 41.1903 -74.8131 300° West 345 397 28,800 1,380 Climbing New York Center
08:59PM 41.2328 -74.9119 300° West 340 391 30,000 600 Climbing New York Center
09:00PM 41.2864 -75.0394 299° West 340 391 30,000  Level New York Center
09:01PM 41.3306 -75.1447 299° West 335 386 30,000 600 Level New York Center
09:02PM 41.3767 -75.2500 300° West 335 386 31,300 1,260 Climbing New York Center
09:03PM 41.4225 -75.3581 300° West 335 386 32,600 1,200 Climbing New York Center
09:04PM 41.4683 -75.4636 300° West 335 386 33,700 1,080 Climbing New York Center
09:05PM 41.5033 -75.5797 292° West 335 386 34,800 900 Climbing New York Center
09:06PM 41.5358 -75.6956 291° West 335 386 35,500 660 Climbing New York Center
09:07PM 41.5725 -75.8175 292° West 342 394 36,100 780 Climbing New York Center
09:08PM 41.6069 -75.9367 291° West 342 394 37,200 840 Climbing New York Center
09:09PM 41.6392 -76.0558 290° West 342 394 37,800 360 Climbing New York Center
09:10PM 41.6714 -76.1722 290° West 342 394 38,000 60 Climbing New York Center
09:11PM 41.7072 -76.2972 291° West 342 394 38,000  Level New York Center
09:12PM 41.7431 -76.4197 291° West 353 406 38,000  Level New York Center
09:13PM 41.7711 -76.5306 289° West 358 412 38,000  Level New York Center
09:14PM 41.8047 -76.6561 290° West 358 412 38,000  Level New York Center
09:15PM 41.8419 -76.7819 292° West 358 412 38,000  Level New York Center
09:16PM 41.8903 -76.9567 290° West 358 412 38,000  Level Cleveland Center
09:17PM 41.9256 -77.0858 290° West 364 419 38,000  Level Cleveland Center
09:18PM 41.9608 -77.2153 290° West 364 419 38,000  Level Cleveland Center
09:19PM 41.9933 -77.3394 289° West 364 419 38,000  Level Cleveland Center
09:20PM 42.0261 -77.4664 289° West 364 419 38,000  Level Cleveland Center
09:21PM 42.0608 -77.5961 290° West 364 419 38,000  Level Cleveland Center
09:22PM 42.0953 -77.7233 290° West 364 419 38,000  Level Cleveland Center
09:23PM 42.1275 -77.8478 289° West 364 419 38,000  Level Cleveland Center
09:24PM 42.1617 -77.9725 290° West 364 419 38,000  Level Cleveland Center
09:25PM 42.1939 -78.1000 289° West 364 419 38,000  Level Cleveland Center
09:26PM 42.2233 -78.2111 290° West 359 413 38,000  Level Cleveland Center
09:27PM 42.2528 -78.3361 288° West 359 413 38,000  Level Cleveland Center
09:28PM 42.2864 -78.4586 290° West 359 413 38,000  Level Cleveland Center
09:29PM 42.3178 -78.5867 288° West 359 413 38,000  Level Cleveland Center
09:30PM 42.3492 -78.7092 289° West 359 413 38,000  Level Cleveland Center
09:31PM 42.3803 -78.8319 289° West 353 406 38,000  Level Cleveland Center
09:32PM 42.4031 -78.9581 284° West 353 406 38,000  Level Cleveland Center
09:33PM 42.4172 -79.0925 278° West 359 413 38,000  Level Cleveland Center
09:34PM 42.4314 -79.2244 278° West 359 413 38,000  Level Cleveland Center
09:35PM 42.4453 -79.3564 278° West 359 413 38,000  Level Cleveland Center
09:36PM 42.4592 -79.4883 278° West 365 420 38,000  Level Cleveland Center
09:37PM 42.4728 -79.6233 278° West 365 420 38,000  Level Cleveland Center
09:38PM 42.4906 -79.7553 280° West 365 420 38,000  Level Cleveland Center
09:39PM 42.5019 -79.8875 277° West 370 426 38,000  Level Cleveland Center
09:40PM 42.5172 -80.0394 278° West 370 426 38,000  Level Cleveland Center
09:41PM 42.5325 -80.1747 279° West 370 426 38,000  Level Cleveland Center
09:42PM 42.5433 -80.3097 276° West 370 426 38,000  Level Cleveland Center
09:43PM 42.5539 -80.4422 276° West 363 418 38,000  Level Cleveland Center
09:44PM 42.5686 -80.5803 278° West 370 426 38,000  Level Cleveland Center
09:45PM 42.5811 -80.7156 277° West 370 426 38,000  Level Cleveland Center
09:46PM 42.5953 -80.8539 278° West 370 426 38,000  Level Cleveland Center
09:47PM 42.6056 -80.9781 276° West 370 426 38,000  Level Cleveland Center
09:48PM 42.6194 -81.1136 278° West 370 426 38,000  Level Cleveland Center
09:49PM 42.6314 -81.2492 277° West 370 426 38,000  Level Cleveland Center
09:50PM 42.6450 -81.3875 278° West 370 426 38,000  Level Cleveland Center
09:51PM 42.6544 -81.5175 276° West 363 418 38,000  Level Cleveland Center
09:52PM 42.6678 -81.6533 278° West 363 418 38,000  Level Cleveland Center
09:53PM 42.6808 -81.8089 277° West 374 430 38,000  Level Cleveland Center
09:54PM 42.6939 -81.9447 277° West 369 425 38,000  Level Cleveland Center
09:55PM 42.7025 -82.0861 275° West 369 425 38,000  Level Cleveland Center
09:56PM 42.7153 -82.2250 277° West 369 425 38,000  Level Cleveland Center
09:57PM 42.7258 -82.3636 276° West 369 425 38,000  Level Cleveland Center
09:58PM 42.7358 -82.5053 276° West 369 425 38,000  Level Cleveland Center
09:59PM 42.7481 -82.6414 277° West 369 425 38,000  Level Cleveland Center
10:00PM 42.7581 -82.7803 276° West 369 425 38,000  Level Cleveland Center
10:01PM 42.7681 -82.9081 276° West 374 430 38,000  Level Cleveland Center
10:02PM 42.7800 -83.0442 277° West 374 430 38,000  Level Cleveland Center
10:03PM 42.7894 -83.1833 275° West 374 430 38,000  Level Cleveland Center
10:04PM 42.8006 -83.3253 276° West 374 430 38,000  Level Cleveland Center
10:05PM 42.8097 -83.4672 275° West 374 430 38,000  Level Cleveland Center
10:06PM 42.8208 -83.6064 276° West 374 430 38,000  Level Cleveland Center
10:07PM 42.8317 -83.7456 276° West 374 430 38,000  Level Cleveland Center
10:08PM 42.8400 -83.8878 275° West 374 430 38,000  Level Cleveland Center
10:09PM 42.8486 -84.0269 275° West 374 430 38,000  Level Cleveland Center
10:10PM 42.8569 -84.1633 275° West 374 430 38,000 -900 Level Cleveland Center
10:11PM 42.8650 -84.3056 274° West 369 425 36,300 -1,800 Descending Cleveland Center
10:12PM 42.8772 -84.4758 276° West 365 420 33,900 -1,020 Descending Chicago Center
10:13PM 42.8778 -84.6439 270° West 374 430 34,000  Climbing Chicago Center
10:14PM 42.8628 -84.7869 262° West 382 440 34,000  Level Chicago Center
10:15PM 42.8481 -84.9317 262° West 385 443 34,000  Level Chicago Center
10:16PM 42.8319 -85.0800 262° West 394 453 34,000  Level Chicago Center
10:17PM 42.8158 -85.2286 262° West 397 457 34,000  Level Chicago Center
10:18PM 42.8003 -85.3756 262° West 393 452 34,000 -360 Level Chicago Center
10:19PM 42.7822 -85.5219 261° West 392 451 33,300 -1,680 Descending Chicago Center
10:20PM 42.7556 -85.6667 256° West 392 451 30,600 -2,580 Descending Chicago Center
10:21PM 42.7486 -85.8125 266° West 386 444 28,100 -2,460 Descending Chicago Center
10:22PM 42.7492 -85.9522 270° West 370 426 25,600 -2,280 Descending Chicago Center
10:23PM 42.7472 -86.0878 269° West 361 415 23,500 -1,560 Descending Chicago Center
10:24PM 42.7336 -86.2156 262° West 352 405 22,500 -1,140 Descending Chicago Center
10:25PM 42.6894 -86.3611 248° West 347 399 21,200 -1,080 Descending Chicago Center
10:26PM 42.6533 -86.4811 248° West 346 398 20,300 -1,380 Descending Chicago Center
10:28PM 42.6158 -86.6047 248° West 352 405 18,400 -1,920 Descending Chicago Center
10:29PM 42.5814 -86.7233 249° West 342 394 16,400 -1,920 Descending Chicago Center
10:30PM 42.5464 -86.8408 248° West 337 388 14,500 -1,920 Descending Chicago Center
10:31PM 42.5108 -86.9558 247° West 334 384 12,500 -1,920 Descending Chicago Center
10:32PM 42.4756 -87.0653 246° West 324 373 10,600 -1,260 Descending Chicago Center
10:33PM 42.4442 -87.1667 247° West 302 348 10,000 -840 Descending Chicago Center
10:34PM 42.3833 -87.2275 216° Southwest 291 335 9,000 -900 Descending Chicago Center
10:35PM 42.3025 -87.2875 209° Southwest 282 325 8,200 -1,020 Descending Chicago Center
10:36PM 42.2350 -87.3381 209° Southwest 281 323 7,000 -1,080 Descending Chicago Center
10:37PM 42.1742 -87.3878 211° Southwest 261 300 6,000 -540 Descending Chicago Center
10:38PM 42.1156 -87.4392 213° Southwest 254 292 6,000  Level Chicago Center
10:38PM 42.0833 -87.4667 212° Southwest 238 274 6,000 -540 Level Chicago TRACON
10:39PM 42.0333 -87.5167 217° Southwest 200 230 5,100 -840 Descending Chicago TRACON
10:40PM 42.0000 -87.5500 217° Southwest 196 226 4,400 -600 Descending Chicago TRACON
10:41PM 41.9667 -87.6167 236° Southwest 193 222 4,000 -480 Descending Chicago TRACON
10:42PM 41.9667 -87.6833 270° West 191 220 3,500 -780 Descending Chicago TRACON
10:43PM 41.9667 -87.7500 270° West 176 203 2,600 -900 Descending Chicago TRACON
10:44PM 41.9667 -87.8167 270° West 130 150 1,700 -720 Descending Chicago TRACON
10:45PM 41.9667 -87.8500 270° West 137 158 1,100 -720 Descending Chicago TRACON